sensor_id;sensor_type;location;lat;lon;timestamp;pressure;altitude;pressure_sealevel;temperature;humidity
26781;BME280;14366;49.184;8.054;2023-11-21T00:03:49;98517.59;;;10.02;96.24
26781;BME280;14366;49.184;8.054;2023-11-21T00:09:25;98521.78;;;10.04;96.21
26781;BME280;14366;49.184;8.054;2023-11-21T00:15:00;98518.56;;;10.09;97.03
26781;BME280;14366;49.184;8.054;2023-11-21T00:20:21;98510.28;;;10.10;96.20
26781;BME280;14366;49.184;8.054;2023-11-21T00:25:42;98517.88;;;10.07;96.88
26781;BME280;14366;49.184;8.054;2023-11-21T00:31:17;98513.97;;;10.09;96.99
26781;BME280;14366;49.184;8.054;2023-11-21T00:41:42;98507.59;;;10.10;96.67
26781;BME280;14366;49.184;8.054;2023-11-21T00:47:15;98501.72;;;10.07;96.43
26781;BME280;14366;49.184;8.054;2023-11-21T00:57:56;98503.22;;;10.09;96.85
26781;BME280;14366;49.184;8.054;2023-11-21T01:08:36;98508.75;;;10.16;96.28
26781;BME280;14366;49.184;8.054;2023-11-21T01:13:57;98515.00;;;10.16;96.42
26781;BME280;14366;49.184;8.054;2023-11-21T01:24:37;98507.06;;;10.15;96.19
26781;BME280;14366;49.184;8.054;2023-11-21T01:35:03;98512.63;;;10.13;96.33
26781;BME280;14366;49.184;8.054;2023-11-21T01:40:39;98516.03;;;10.07;96.40
26781;BME280;14366;49.184;8.054;2023-11-21T01:45:59;98523.94;;;10.09;96.70
26781;BME280;14366;49.184;8.054;2023-11-21T01:51:35;98526.78;;;10.15;95.68
26781;BME280;14366;49.184;8.054;2023-11-21T01:57:11;98523.56;;;10.12;95.69
26781;BME280;14366;49.184;8.054;2023-11-21T02:02:31;98521.25;;;10.09;96.73
26781;BME280;14366;49.184;8.054;2023-11-21T02:07:52;98523.94;;;10.09;96.95
26781;BME280;14366;49.184;8.054;2023-11-21T02:13:28;98519.88;;;10.13;96.81
26781;BME280;14366;49.184;8.054;2023-11-21T02:19:04;98519.88;;;10.13;97.34
26781;BME280;14366;49.184;8.054;2023-11-21T02:24:39;98518.69;;;10.15;96.60
26781;BME280;14366;49.184;8.054;2023-11-21T02:30:14;98522.69;;;10.19;97.18
26781;BME280;14366;49.184;8.054;2023-11-21T02:35:47;98529.09;;;10.18;96.47
26781;BME280;14366;49.184;8.054;2023-11-21T02:46:29;98512.75;;;10.20;96.61
26781;BME280;14366;49.184;8.054;2023-11-21T02:57:08;98514.81;;;10.18;96.52
26781;BME280;14366;49.184;8.054;2023-11-21T03:02:57;98521.06;;;10.10;96.86
26781;BME280;14366;49.184;8.054;2023-11-21T03:13:36;98520.88;;;10.12;96.59
26781;BME280;14366;49.184;8.054;2023-11-21T03:19:14;98508.75;;;10.16;96.63
26781;BME280;14366;49.184;8.054;2023-11-21T03:24:49;98516.47;;;10.19;96.12
26781;BME280;14366;49.184;8.054;2023-11-21T03:30:25;98518.44;;;10.25;95.87
26781;BME280;14366;49.184;8.054;2023-11-21T03:35:47;98513.53;;;10.28;96.26
26781;BME280;14366;49.184;8.054;2023-11-21T03:41:23;98529.22;;;10.25;96.05
26781;BME280;14366;49.184;8.054;2023-11-21T03:46:42;98523.00;;;10.24;96.38
26781;BME280;14366;49.184;8.054;2023-11-21T03:52:04;98528.56;;;10.23;96.01
26781;BME280;14366;49.184;8.054;2023-11-21T03:57:39;98530.59;;;10.21;96.04
26781;BME280;14366;49.184;8.054;2023-11-21T04:02:59;98528.28;;;10.18;96.28
26781;BME280;14366;49.184;8.054;2023-11-21T04:08:21;98542.03;;;10.23;96.76
26781;BME280;14366;49.184;8.054;2023-11-21T04:13:56;98544.06;;;10.21;96.37
26781;BME280;14366;49.184;8.054;2023-11-21T04:19:16;98551.13;;;10.22;96.18
26781;BME280;14366;49.184;8.054;2023-11-21T04:24:38;98551.69;;;10.17;96.38
26781;BME280;14366;49.184;8.054;2023-11-21T04:30:14;98541.59;;;10.11;96.59
26781;BME280;14366;49.184;8.054;2023-11-21T04:35:48;98545.63;;;10.15;96.82
26781;BME280;14366;49.184;8.054;2023-11-21T04:41:26;98557.06;;;10.17;96.62
26781;BME280;14366;49.184;8.054;2023-11-21T04:47:00;98565.25;;;10.24;96.22
26781;BME280;14366;49.184;8.054;2023-11-21T04:52:34;98563.22;;;10.26;96.29
26781;BME280;14366;49.184;8.054;2023-11-21T04:57:56;98574.53;;;10.21;95.53
26781;BME280;14366;49.184;8.054;2023-11-21T05:03:30;98572.84;;;10.20;95.84
26781;BME280;14366;49.184;8.054;2023-11-21T05:09:03;98580.75;;;10.22;95.74
26781;BME280;14366;49.184;8.054;2023-11-21T05:14:25;98576.19;;;10.22;94.99
26781;BME280;14366;49.184;8.054;2023-11-21T05:20:01;98585.78;;;10.25;95.52
26781;BME280;14366;49.184;8.054;2023-11-21T05:25:23;98591.81;;;10.27;95.93
26781;BME280;14366;49.184;8.054;2023-11-21T05:30:44;98591.16;;;10.25;95.37
26781;BME280;14366;49.184;8.054;2023-11-21T05:36:13;98607.50;;;10.23;95.81
26781;BME280;14366;49.184;8.054;2023-11-21T05:41:33;98606.50;;;10.24;96.28
26781;BME280;14366;49.184;8.054;2023-11-21T05:46:54;98620.44;;;10.28;96.19
26781;BME280;14366;49.184;8.054;2023-11-21T05:52:24;98624.13;;;10.27;96.28
26781;BME280;14366;49.184;8.054;2023-11-21T05:57:45;98632.22;;;10.27;95.96
26781;BME280;14366;49.184;8.054;2023-11-21T06:03:06;98636.78;;;10.26;95.93
26781;BME280;14366;49.184;8.054;2023-11-21T06:08:38;98645.41;;;10.22;96.13
26781;BME280;14366;49.184;8.054;2023-11-21T06:13:58;98651.78;;;10.21;96.30
26781;BME280;14366;49.184;8.054;2023-11-21T06:19:19;98661.19;;;10.25;96.40
26781;BME280;14366;49.184;8.054;2023-11-21T06:24:55;98666.41;;;10.26;96.01
26781;BME280;14366;49.184;8.054;2023-11-21T06:30:14;98656.81;;;10.24;96.21
26781;BME280;14366;49.184;8.054;2023-11-21T06:35:48;98667.91;;;10.29;96.33
26781;BME280;14366;49.184;8.054;2023-11-21T06:41:23;98681.38;;;10.29;96.59
26781;BME280;14366;49.184;8.054;2023-11-21T06:51:49;98694.84;;;10.29;96.08
26781;BME280;14366;49.184;8.054;2023-11-21T07:02:30;98718.47;;;10.11;96.71
26781;BME280;14366;49.184;8.054;2023-11-21T07:07:51;98721.00;;;10.12;96.93
26781;BME280;14366;49.184;8.054;2023-11-21T07:13:26;98725.69;;;10.10;96.98
26781;BME280;14366;49.184;8.054;2023-11-21T07:19:02;98736.47;;;10.10;96.65
26781;BME280;14366;49.184;8.054;2023-11-21T07:24:40;98747.06;;;10.12;96.99
26781;BME280;14366;49.184;8.054;2023-11-21T07:30:16;98760.06;;;10.08;97.33
26781;BME280;14366;49.184;8.054;2023-11-21T07:40:42;98766.44;;;10.15;97.05
26781;BME280;14366;49.184;8.054;2023-11-21T07:51:19;98775.47;;;10.22;97.58
26781;BME280;14366;49.184;8.054;2023-11-21T07:56:40;98773.63;;;10.23;97.03
26781;BME280;14366;49.184;8.054;2023-11-21T08:02:14;98786.41;;;10.29;97.14
26781;BME280;14366;49.184;8.054;2023-11-21T08:12:39;98793.12;;;10.33;97.00
26781;BME280;14366;49.184;8.054;2023-11-21T08:23:19;98814.34;;;10.28;96.84
26781;BME280;14366;49.184;8.054;2023-11-21T08:33:46;98833.72;;;10.23;96.40
26781;BME280;14366;49.184;8.054;2023-11-21T08:39:22;98830.56;;;10.20;96.69
26781;BME280;14366;49.184;8.054;2023-11-21T08:49:59;98833.19;;;10.36;95.88
26781;BME280;14366;49.184;8.054;2023-11-21T08:55:19;98836.41;;;10.31;96.11
26781;BME280;14366;49.184;8.054;2023-11-21T09:00:40;98839.59;;;10.35;95.93
26781;BME280;14366;49.184;8.054;2023-11-21T09:06:17;98841.47;;;10.34;95.69
26781;BME280;14366;49.184;8.054;2023-11-21T09:11:49;98842.63;;;10.32;95.53
26781;BME280;14366;49.184;8.054;2023-11-21T09:17:07;98863.84;;;10.35;95.95
26781;BME280;14366;49.184;8.054;2023-11-21T09:27:46;98871.59;;;10.30;95.62
26781;BME280;14366;49.184;8.054;2023-11-21T09:38:26;98885.91;;;10.30;95.94
26781;BME280;14366;49.184;8.054;2023-11-21T09:43:49;98899.56;;;10.29;96.34
26781;BME280;14366;49.184;8.054;2023-11-21T09:49:23;98901.22;;;10.38;96.06
26781;BME280;14366;49.184;8.054;2023-11-21T09:54:59;98903.75;;;10.39;95.77
26781;BME280;14366;49.184;8.054;2023-11-21T10:00:36;98905.91;;;10.44;95.15
26781;BME280;14366;49.184;8.054;2023-11-21T10:06:09;98904.88;;;10.45;95.48
26781;BME280;14366;49.184;8.054;2023-11-21T10:11:44;98922.06;;;10.52;95.24
26781;BME280;14366;49.184;8.054;2023-11-21T10:17:07;98914.97;;;10.51;94.29
26781;BME280;14366;49.184;8.054;2023-11-21T10:22:41;98923.56;;;10.55;94.12
26781;BME280;14366;49.184;8.054;2023-11-21T10:28:16;98920.22;;;10.53;94.53
26781;BME280;14366;49.184;8.054;2023-11-21T10:33:39;98928.47;;;10.51;94.54
26781;BME280;14366;49.184;8.054;2023-11-21T10:39:14;98936.53;;;10.51;94.26
26781;BME280;14366;49.184;8.054;2023-11-21T10:44:48;98933.97;;;10.58;94.67
26781;BME280;14366;49.184;8.054;2023-11-21T10:50:10;98939.91;;;10.45;94.69
26781;BME280;14366;49.184;8.054;2023-11-21T10:55:45;98945.31;;;10.37;94.27
26781;BME280;14366;49.184;8.054;2023-11-21T11:01:21;98948.72;;;10.31;95.28
26781;BME280;14366;49.184;8.054;2023-11-21T11:06:58;98940.97;;;10.20;95.23
26781;BME280;14366;49.184;8.054;2023-11-21T11:12:32;98952.75;;;10.27;96.27
26781;BME280;14366;49.184;8.054;2023-11-21T11:18:07;98953.75;;;10.34;95.26
26781;BME280;14366;49.184;8.054;2023-11-21T11:23:52;98951.06;;;10.34;95.27
26781;BME280;14366;49.184;8.054;2023-11-21T11:34:38;98948.50;;;10.40;95.29
26781;BME280;14366;49.184;8.054;2023-11-21T11:45:20;98954.25;;;10.37;94.38
26781;BME280;14366;49.184;8.054;2023-11-21T11:51:02;98948.50;;;10.40;93.89
26781;BME280;14366;49.184;8.054;2023-11-21T11:56:35;98954.94;;;10.39;93.38
26781;BME280;14366;49.184;8.054;2023-11-21T12:02:11;98964.50;;;10.42;92.75
26781;BME280;14366;49.184;8.054;2023-11-21T12:07:46;98973.75;;;10.56;92.82
26781;BME280;14366;49.184;8.054;2023-11-21T12:18:52;98970.53;;;10.60;94.65
26781;BME280;14366;49.184;8.054;2023-11-21T12:24:27;98973.72;;;10.64;93.71
26781;BME280;14366;49.184;8.054;2023-11-21T12:30:02;98978.59;;;10.68;93.49
26781;BME280;14366;49.184;8.054;2023-11-21T12:35:35;98972.84;;;10.71;92.92
26781;BME280;14366;49.184;8.054;2023-11-21T12:46:14;98980.59;;;10.82;90.93
26781;BME280;14366;49.184;8.054;2023-11-21T12:56:56;98983.19;;;11.07;89.69
26781;BME280;14366;49.184;8.054;2023-11-21T13:07:31;98980.44;;;11.46;86.32
26781;BME280;14366;49.184;8.054;2023-11-21T13:13:06;98993.94;;;11.46;85.44
26781;BME280;14366;49.184;8.054;2023-11-21T13:18:41;99002.63;;;11.33;85.47
26781;BME280;14366;49.184;8.054;2023-11-21T13:24:16;99012.44;;;11.26;85.00
26781;BME280;14366;49.184;8.054;2023-11-21T13:29:37;99017.16;;;11.24;85.47
26781;BME280;14366;49.184;8.054;2023-11-21T13:40:15;99025.25;;;11.24;85.66
26781;BME280;14366;49.184;8.054;2023-11-21T13:45:52;99027.09;;;11.23;85.04
26781;BME280;14366;49.184;8.054;2023-11-21T13:56:28;99041.28;;;11.25;85.09
26781;BME280;14366;49.184;8.054;2023-11-21T14:01:49;99054.94;;;11.24;85.49
26781;BME280;14366;49.184;8.054;2023-11-21T14:07:23;99052.41;;;11.22;84.32
26781;BME280;14366;49.184;8.054;2023-11-21T14:12:58;99066.75;;;11.23;83.71
26781;BME280;14366;49.184;8.054;2023-11-21T14:18:17;99066.59;;;11.16;83.67
26781;BME280;14366;49.184;8.054;2023-11-21T14:23:53;99073.19;;;11.06;83.50
26781;BME280;14366;49.184;8.054;2023-11-21T14:34:19;99079.66;;;10.97;83.90
26781;BME280;14366;49.184;8.054;2023-11-21T14:39:54;99089.41;;;10.98;84.79
26781;BME280;14366;49.184;8.054;2023-11-21T14:45:14;99091.41;;;11.04;85.87
26781;BME280;14366;49.184;8.054;2023-11-21T14:50:37;99099.88;;;11.01;84.69
26781;BME280;14366;49.184;8.054;2023-11-21T15:01:16;99102.03;;;11.05;85.31
26781;BME280;14366;49.184;8.054;2023-11-21T15:06:37;99109.63;;;11.10;85.81
26781;BME280;14366;49.184;8.054;2023-11-21T15:12:13;99112.47;;;11.08;85.93
26781;BME280;14366;49.184;8.054;2023-11-21T15:17:34;99125.13;;;11.08;86.03
26781;BME280;14366;49.184;8.054;2023-11-21T15:22:54;99131.19;;;11.02;85.97
26781;BME280;14366;49.184;8.054;2023-11-21T15:28:30;99130.69;;;10.98;86.26
26781;BME280;14366;49.184;8.054;2023-11-21T15:33:50;99135.78;;;11.01;87.32
26781;BME280;14366;49.184;8.054;2023-11-21T15:39:28;99137.28;;;11.04;86.95
26781;BME280;14366;49.184;8.054;2023-11-21T15:45:03;99144.88;;;11.00;87.01
26781;BME280;14366;49.184;8.054;2023-11-21T15:50:37;99149.06;;;10.95;87.05
26781;BME280;14366;49.184;8.054;2023-11-21T15:55:59;99154.13;;;10.90;87.42
26781;BME280;14366;49.184;8.054;2023-11-21T16:01:31;99159.19;;;10.84;88.17
26781;BME280;14366;49.184;8.054;2023-11-21T16:06:51;99166.28;;;10.77;87.59
26781;BME280;14366;49.184;8.054;2023-11-21T16:12:29;99180.25;;;10.73;87.71
26781;BME280;14366;49.184;8.054;2023-11-21T16:18:03;99191.88;;;10.73;87.95
26781;BME280;14366;49.184;8.054;2023-11-21T16:23:23;99196.59;;;10.71;88.20
26781;BME280;14366;49.184;8.054;2023-11-21T16:28:45;99198.78;;;10.60;88.13
26781;BME280;14366;49.184;8.054;2023-11-21T16:34:20;99208.34;;;10.46;86.88
26781;BME280;14366;49.184;8.054;2023-11-21T16:39:56;99215.44;;;10.47;87.25
26781;BME280;14366;49.184;8.054;2023-11-21T16:45:18;99223.03;;;10.44;87.53
26781;BME280;14366;49.184;8.054;2023-11-21T16:50:48;99226.56;;;10.44;88.00
26781;BME280;14366;49.184;8.054;2023-11-21T16:56:08;99234.47;;;10.46;86.65
26781;BME280;14366;49.184;8.054;2023-11-21T17:01:40;99242.53;;;10.46;87.19
26781;BME280;14366;49.184;8.054;2023-11-21T17:07:14;99245.38;;;10.36;87.24
26781;BME280;14366;49.184;8.054;2023-11-21T17:12:46;99254.81;;;10.40;87.70
26781;BME280;14366;49.184;8.054;2023-11-21T17:18:08;99262.59;;;10.43;87.01
26781;BME280;14366;49.184;8.054;2023-11-21T17:23:40;99275.34;;;10.33;86.95
26781;BME280;14366;49.184;8.054;2023-11-21T17:29:13;99280.38;;;10.28;86.66
26781;BME280;14366;49.184;8.054;2023-11-21T17:34:35;99286.59;;;10.20;87.17
26781;BME280;14366;49.184;8.054;2023-11-21T17:40:08;99292.81;;;10.21;87.41
26781;BME280;14366;49.184;8.054;2023-11-21T17:45:40;99298.81;;;10.15;87.49
26781;BME280;14366;49.184;8.054;2023-11-21T17:51:15;99299.00;;;10.13;87.47
26781;BME280;14366;49.184;8.054;2023-11-21T17:56:49;99313.09;;;10.07;87.82
26781;BME280;14366;49.184;8.054;2023-11-21T18:02:24;99321.00;;;10.09;87.34
26781;BME280;14366;49.184;8.054;2023-11-21T18:08:02;99325.69;;;10.07;87.15
26781;BME280;14366;49.184;8.054;2023-11-21T18:13:39;99332.09;;;10.06;87.86
26781;BME280;14366;49.184;8.054;2023-11-21T18:18:58;99332.41;;;10.03;87.85
26781;BME280;14366;49.184;8.054;2023-11-21T18:24:20;99332.59;;;10.09;87.82
26781;BME280;14366;49.184;8.054;2023-11-21T18:29:55;99339.53;;;10.12;87.44
26781;BME280;14366;49.184;8.054;2023-11-21T18:35:15;99353.84;;;10.12;87.95
26781;BME280;14366;49.184;8.054;2023-11-21T18:40:52;99359.72;;;10.08;87.69
26781;BME280;14366;49.184;8.054;2023-11-21T18:46:25;99360.03;;;10.05;87.75
26781;BME280;14366;49.184;8.054;2023-11-21T18:51:45;99372.47;;;10.06;87.96
26781;BME280;14366;49.184;8.054;2023-11-21T18:57:22;99385.31;;;10.12;88.02
26781;BME280;14366;49.184;8.054;2023-11-21T19:02:58;99385.94;;;10.06;87.43
26781;BME280;14366;49.184;8.054;2023-11-21T19:08:34;99393.53;;;10.10;87.63
26781;BME280;14366;49.184;8.054;2023-11-21T19:13:55;99394.69;;;10.00;87.74
26781;BME280;14366;49.184;8.054;2023-11-21T19:19:29;99413.19;;;10.03;88.38
26781;BME280;14366;49.184;8.054;2023-11-21T19:24:50;99412.69;;;9.99;88.54
26781;BME280;14366;49.184;8.054;2023-11-21T19:30:23;99423.28;;;10.01;88.11
26781;BME280;14366;49.184;8.054;2023-11-21T19:35:59;99431.66;;;9.98;88.36
26781;BME280;14366;49.184;8.054;2023-11-21T19:41:32;99433.84;;;9.94;88.34
26781;BME280;14366;49.184;8.054;2023-11-21T19:47:08;99437.37;;;9.94;88.70
26781;BME280;14366;49.184;8.054;2023-11-21T19:52:43;99437.84;;;9.90;89.05
26781;BME280;14366;49.184;8.054;2023-11-21T19:58:04;99446.59;;;9.92;89.15
26781;BME280;14366;49.184;8.054;2023-11-21T20:03:26;99452.53;;;9.95;89.19
26781;BME280;14366;49.184;8.054;2023-11-21T20:09:01;99452.22;;;9.99;89.26
26781;BME280;14366;49.184;8.054;2023-11-21T20:14:17;99473.75;;;9.99;89.18
26781;BME280;14366;49.184;8.054;2023-11-21T20:19:51;99477.13;;;10.01;88.69
26781;BME280;14366;49.184;8.054;2023-11-21T20:25:21;99472.75;;;10.00;89.33
26781;BME280;14366;49.184;8.054;2023-11-21T20:30:42;99486.75;;;10.03;89.56
26781;BME280;14366;49.184;8.054;2023-11-21T20:36:00;99490.28;;;10.04;89.33
26781;BME280;14366;49.184;8.054;2023-11-21T20:41:33;99495.97;;;10.01;88.80
26781;BME280;14366;49.184;8.054;2023-11-21T20:46:53;99490.97;;;10.06;88.56
26781;BME280;14366;49.184;8.054;2023-11-21T20:52:29;99500.13;;;10.13;88.97
26781;BME280;14366;49.184;8.054;2023-11-21T20:58:04;99494.47;;;10.16;88.68
26781;BME280;14366;49.184;8.054;2023-11-21T21:03:39;99497.16;;;10.16;89.30
26781;BME280;14366;49.184;8.054;2023-11-21T21:09:00;99493.13;;;10.20;88.61
26781;BME280;14366;49.184;8.054;2023-11-21T21:14:34;99502.97;;;10.11;88.88
26781;BME280;14366;49.184;8.054;2023-11-21T21:20:10;99501.44;;;10.09;88.25
26781;BME280;14366;49.184;8.054;2023-11-21T21:25:48;99502.78;;;10.05;88.94
26781;BME280;14366;49.184;8.054;2023-11-21T21:31:23;99499.69;;;10.00;88.75
26781;BME280;14366;49.184;8.054;2023-11-21T21:36:59;99515.16;;;9.98;89.39
26781;BME280;14366;49.184;8.054;2023-11-21T21:42:20;99516.84;;;9.99;89.22
26781;BME280;14366;49.184;8.054;2023-11-21T21:52:59;99511.38;;;10.08;89.82
26781;BME280;14366;49.184;8.054;2023-11-21T22:03:40;99527.22;;;9.58;92.40
26781;BME280;14366;49.184;8.054;2023-11-21T22:09:15;99539.59;;;9.51;93.18
26781;BME280;14366;49.184;8.054;2023-11-21T22:14:35;99537.09;;;9.40;92.37
26781;BME280;14366;49.184;8.054;2023-11-21T22:20:12;99547.22;;;9.28;92.55
26781;BME280;14366;49.184;8.054;2023-11-21T22:25:49;99562.28;;;9.21;92.64
26781;BME280;14366;49.184;8.054;2023-11-21T22:31:09;99571.28;;;9.02;91.91
26781;BME280;14366;49.184;8.054;2023-11-21T22:36:31;99570.88;;;8.88;91.36
26781;BME280;14366;49.184;8.054;2023-11-21T22:47:06;99591.31;;;8.71;91.47
26781;BME280;14366;49.184;8.054;2023-11-21T22:52:40;99595.84;;;8.61;92.27
26781;BME280;14366;49.184;8.054;2023-11-21T22:58:16;99609.28;;;8.51;92.08
26781;BME280;14366;49.184;8.054;2023-11-21T23:03:36;99616.12;;;8.46;91.89
26781;BME280;14366;49.184;8.054;2023-11-21T23:14:02;99629.66;;;8.35;90.09
26781;BME280;14366;49.184;8.054;2023-11-21T23:19:36;99646.59;;;8.26;90.54
26781;BME280;14366;49.184;8.054;2023-11-21T23:30:00;99659.75;;;8.19;88.72
26781;BME280;14366;49.184;8.054;2023-11-21T23:35:35;99673.13;;;8.00;87.75
26781;BME280;14366;49.184;8.054;2023-11-21T23:41:11;99678.06;;;7.85;86.79
26781;BME280;14366;49.184;8.054;2023-11-21T23:46:33;99678.31;;;7.82;87.93
26781;BME280;14366;49.184;8.054;2023-11-21T23:52:05;99687.63;;;7.78;86.42
26781;BME280;14366;49.184;8.054;2023-11-21T23:57:25;99684.34;;;7.65;86.45
